createdAt,value
2017-02-17T00:01:06.507Z,0
2017-02-17T00:02:16.786Z,0
2017-02-17T00:03:27.492Z,0
2017-02-17T00:04:37.767Z,0
2017-02-17T00:05:48.191Z,0
2017-02-17T00:06:58.487Z,0
2017-02-17T00:08:09.162Z,0
2017-02-17T00:09:19.462Z,0
2017-02-17T00:10:29.782Z,0
2017-02-17T00:11:39.992Z,0
2017-02-17T00:12:50.648Z,0
2017-02-17T00:14:00.921Z,0
2017-02-17T00:15:11.204Z,0
2017-02-17T00:16:21.500Z,0
2017-02-17T00:17:32.045Z,0
2017-02-17T00:18:42.707Z,0
2017-02-17T00:19:53.381Z,0
2017-02-17T00:21:03.281Z,0
2017-02-17T00:22:13.183Z,0
2017-02-17T00:23:23.328Z,0
2017-02-17T00:24:33.635Z,0
2017-02-17T00:25:43.541Z,0
2017-02-17T00:26:53.843Z,0
2017-02-17T00:28:04.516Z,0
2017-02-17T00:29:15.049Z,0
2017-02-17T00:30:24.926Z,0
2017-02-17T00:31:35.208Z,0
2017-02-17T00:32:45.910Z,0
2017-02-17T00:33:54.675Z,0
2017-02-17T00:35:04.891Z,0
2017-02-17T00:36:15.186Z,0
2017-02-17T00:37:24.731Z,0
2017-02-17T00:38:35.404Z,0
2017-02-17T00:39:45.708Z,0
2017-02-17T00:40:56.274Z,0
2017-02-17T00:42:06.581Z,0
2017-02-17T00:43:16.883Z,0
2017-02-17T00:44:27.544Z,0
2017-02-17T00:45:37.831Z,0
2017-02-17T00:46:48.381Z,0
2017-02-17T00:47:57.868Z,0
2017-02-17T00:49:08.553Z,0
2017-02-17T00:50:18.088Z,0
2017-02-17T00:51:28.804Z,0
2017-02-17T00:52:39.717Z,0
2017-02-17T00:53:49.984Z,0
2017-02-17T00:55:00.273Z,0
2017-02-17T00:56:10.204Z,0
2017-02-17T00:57:20.112Z,0
2017-02-17T00:58:30.643Z,0
2017-02-17T00:59:41.332Z,0
2017-02-17T01:00:51.690Z,0
2017-02-17T01:02:01.979Z,0
2017-02-17T01:03:11.475Z,0
2017-02-17T01:04:22.075Z,0
2017-02-17T01:05:32.774Z,0
2017-02-17T01:06:43.441Z,0
2017-02-17T01:07:53.746Z,0
2017-02-17T01:09:04.425Z,0
2017-02-17T01:10:14.952Z,0
2017-02-17T01:11:25.634Z,0
2017-02-17T01:12:35.528Z,0
2017-02-17T01:13:45.800Z,0
2017-02-17T01:14:56.498Z,0
2017-02-17T01:16:07.450Z,0
2017-02-17T01:17:17.335Z,0
2017-02-17T01:18:27.234Z,0
2017-02-17T01:19:37.950Z,0
2017-02-17T01:20:48.249Z,0
2017-02-17T01:21:59.229Z,0
2017-02-17T01:23:08.754Z,0
2017-02-17T01:24:18.624Z,0
2017-02-17T01:25:28.898Z,0
2017-02-17T01:26:38.781Z,0
2017-02-17T01:27:49.319Z,0
2017-02-17T01:28:59.642Z,0
2017-02-17T01:30:09.933Z,0
2017-02-17T01:31:20.604Z,0
2017-02-17T01:32:30.524Z,0
2017-02-17T01:33:41.059Z,0
2017-02-17T01:34:51.335Z,0
2017-02-17T01:36:01.619Z,0
2017-02-17T01:37:12.295Z,0
2017-02-17T01:38:22.187Z,0
2017-02-17T01:39:33.149Z,0
2017-02-17T01:40:43.837Z,0
2017-02-17T01:41:54.528Z,0
2017-02-17T01:43:05.210Z,0
2017-02-17T01:44:15.785Z,0
2017-02-17T01:45:26.689Z,0
2017-02-17T01:46:36.606Z,0
2017-02-17T01:47:47.276Z,0
2017-02-17T01:48:57.194Z,0
2017-02-17T01:50:06.705Z,0
2017-02-17T01:51:17.250Z,0
2017-02-17T01:52:27.938Z,0
2017-02-17T01:53:38.607Z,0
2017-02-17T01:54:49.276Z,0
2017-02-17T01:55:59.582Z,0
2017-02-17T01:57:10.522Z,0
2017-02-17T01:58:20.396Z,0
2017-02-17T01:59:30.708Z,0
2017-02-17T02:00:41.042Z,0
2017-02-17T02:01:51.340Z,0
2017-02-17T02:03:02.276Z,0
2017-02-17T02:04:12.177Z,0
2017-02-17T02:05:22.848Z,0
2017-02-17T02:06:33.136Z,0
2017-02-17T02:07:43.416Z,0
2017-02-17T02:08:54.336Z,0
2017-02-17T02:10:04.631Z,0
2017-02-17T02:11:15.309Z,0
2017-02-17T02:12:25.230Z,0
2017-02-17T02:13:35.952Z,0
2017-02-17T02:14:46.764Z,0
2017-02-17T02:15:57.046Z,0
2017-02-17T02:17:07.347Z,0
2017-02-17T02:18:18.030Z,0
2017-02-17T02:19:28.719Z,0
2017-02-17T02:20:38.771Z,0
2017-02-17T02:21:49.060Z,0
2017-02-17T02:22:59.340Z,0
2017-02-17T02:24:10.049Z,0
2017-02-17T02:25:20.373Z,0
2017-02-17T02:26:30.990Z,0
2017-02-17T02:27:40.908Z,0
2017-02-17T02:28:51.187Z,0
2017-02-17T02:30:01.483Z,0
2017-02-17T02:31:11.402Z,0
2017-02-17T02:32:21.935Z,0
2017-02-17T02:33:32.638Z,0
2017-02-17T02:34:43.310Z,0
2017-02-17T02:35:53.620Z,0
2017-02-17T02:37:03.904Z,0
2017-02-17T02:38:14.520Z,0
2017-02-17T02:39:24.807Z,0
2017-02-17T02:40:35.504Z,0
2017-02-17T02:41:45.805Z,0
2017-02-17T02:42:56.493Z,0
2017-02-17T02:44:07.068Z,0
2017-02-17T02:45:17.357Z,0
2017-02-17T02:46:27.647Z,0
2017-02-17T02:47:38.318Z,0
2017-02-17T02:48:48.610Z,0
2017-02-17T02:49:59.532Z,0
2017-02-17T02:51:09.820Z,0
2017-02-17T02:52:19.786Z,0
2017-02-17T02:53:30.453Z,0
2017-02-17T02:54:40.744Z,0
2017-02-17T02:55:51.544Z,0
2017-02-17T02:57:02.227Z,0
2017-02-17T02:58:12.513Z,0
2017-02-17T02:59:22.798Z,0
2017-02-17T03:00:33.084Z,0
2017-02-17T03:01:43.698Z,0
2017-02-17T03:02:54.037Z,0
2017-02-17T03:04:04.756Z,0
2017-02-17T03:05:15.423Z,0
2017-02-17T03:06:25.733Z,0
2017-02-17T03:07:36.577Z,0
2017-02-17T03:08:47.253Z,0
2017-02-17T03:09:57.543Z,0
2017-02-17T03:11:08.257Z,0
2017-02-17T03:12:18.557Z,0
2017-02-17T03:13:29.646Z,0
2017-02-17T03:14:40.373Z,0
2017-02-17T03:15:50.264Z,0
2017-02-17T03:17:00.942Z,0
2017-02-17T03:18:11.221Z,0
2017-02-17T03:19:20.988Z,0
2017-02-17T03:20:31.316Z,0
2017-02-17T03:21:42.003Z,0
2017-02-17T03:22:51.895Z,0
2017-02-17T03:24:02.178Z,0
2017-02-17T03:25:12.717Z,0
2017-02-17T03:26:23.392Z,0
2017-02-17T03:27:33.729Z,0
2017-02-17T03:28:44.422Z,0
2017-02-17T03:29:55.155Z,0
2017-02-17T03:31:06.182Z,0
2017-02-17T03:32:16.478Z,0
2017-02-17T03:33:27.179Z,0
2017-02-17T03:34:37.465Z,0
2017-02-17T03:35:47.789Z,0
2017-02-17T03:36:58.346Z,0
2017-02-17T03:38:08.664Z,0
2017-02-17T03:39:18.951Z,0
2017-02-17T03:40:29.238Z,0
2017-02-17T03:41:39.929Z,0
2017-02-17T03:42:49.997Z,0
2017-02-17T03:44:00.703Z,0
2017-02-17T03:45:10.603Z,0
2017-02-17T03:46:20.508Z,0
2017-02-17T03:47:31.186Z,0
2017-02-17T03:48:41.433Z,0
2017-02-17T03:49:52.139Z,0
2017-02-17T03:51:02.885Z,0
2017-02-17T03:52:13.193Z,0
2017-02-17T03:53:23.492Z,0
2017-02-17T03:54:33.943Z,0
2017-02-17T03:55:44.245Z,0
2017-02-17T03:56:54.976Z,0
2017-02-17T03:58:05.657Z,0
2017-02-17T03:59:15.559Z,0
2017-02-17T04:00:26.572Z,0
2017-02-17T04:01:36.074Z,0
2017-02-17T04:02:46.763Z,0
2017-02-17T04:03:57.431Z,0
2017-02-17T04:05:07.721Z,0
2017-02-17T04:06:18.145Z,0
2017-02-17T04:07:28.446Z,0
2017-02-17T04:08:38.749Z,0
2017-02-17T04:09:49.423Z,0
2017-02-17T04:10:59.744Z,0
2017-02-17T04:12:10.681Z,0
2017-02-17T04:13:20.587Z,0
2017-02-17T04:14:30.114Z,0
2017-02-17T04:15:40.414Z,0
2017-02-17T04:16:50.350Z,0
2017-02-17T04:18:00.968Z,0
2017-02-17T04:19:10.496Z,0
2017-02-17T04:20:21.171Z,0
2017-02-17T04:21:31.470Z,0
2017-02-17T04:22:41.809Z,0
2017-02-17T04:23:52.794Z,0
2017-02-17T04:25:02.724Z,0
2017-02-17T04:26:12.685Z,0
2017-02-17T04:27:22.973Z,0
2017-02-17T04:28:33.689Z,0
2017-02-17T04:29:44.510Z,0
2017-02-17T04:30:54.799Z,0
2017-02-17T04:32:05.103Z,0
2017-02-17T04:33:15.384Z,0
2017-02-17T04:34:25.296Z,0
2017-02-17T04:35:35.773Z,0
2017-02-17T04:36:46.488Z,0
2017-02-17T04:37:57.174Z,0
2017-02-17T04:39:07.459Z,0
2017-02-17T04:40:17.754Z,0
2017-02-17T04:41:29.493Z,0
2017-02-17T04:42:40.185Z,0
2017-02-17T04:43:50.892Z,0
2017-02-17T04:45:01.588Z,0
2017-02-17T04:46:11.497Z,0
2017-02-17T04:47:21.868Z,0
2017-02-17T04:48:32.145Z,0
2017-02-17T04:49:42.452Z,0
2017-02-17T04:50:51.602Z,0
2017-02-17T04:52:01.904Z,0
2017-02-17T04:53:11.205Z,0
2017-02-17T04:54:21.503Z,0
2017-02-17T04:55:30.656Z,0
2017-02-17T04:56:40.950Z,0
2017-02-17T04:57:51.253Z,0
2017-02-17T04:59:01.848Z,0
2017-02-17T05:00:12.555Z,0
2017-02-17T05:01:23.221Z,0
2017-02-17T05:02:33.907Z,0
2017-02-17T05:03:43.818Z,0
2017-02-17T05:04:54.460Z,0
2017-02-17T05:06:05.163Z,0
2017-02-17T05:07:14.652Z,0
2017-02-17T05:08:25.606Z,0
2017-02-17T05:09:35.513Z,0
2017-02-17T05:10:46.513Z,0
2017-02-17T05:11:56.808Z,0
2017-02-17T05:13:07.137Z,0
2017-02-17T05:14:17.420Z,0
2017-02-17T05:15:28.122Z,0
2017-02-17T05:16:38.269Z,0
2017-02-17T05:17:48.546Z,0
2017-02-17T05:18:58.865Z,0
2017-02-17T05:20:09.522Z,0
2017-02-17T05:21:19.431Z,0
2017-02-17T05:22:30.021Z,0
2017-02-17T05:23:40.320Z,0
2017-02-17T05:24:50.997Z,0
2017-02-17T05:26:00.918Z,0
2017-02-17T05:27:10.476Z,0
2017-02-17T05:28:21.325Z,0
2017-02-17T05:29:31.654Z,0
2017-02-17T05:30:42.424Z,0
2017-02-17T05:31:53.035Z,0
2017-02-17T05:33:03.724Z,0
2017-02-17T05:34:14.164Z,0
2017-02-17T05:35:24.450Z,0
2017-02-17T05:36:35.162Z,0
2017-02-17T05:37:45.440Z,0
2017-02-17T05:38:55.725Z,0
2017-02-17T05:40:06.752Z,0
2017-02-17T05:41:17.473Z,0
2017-02-17T05:42:27.756Z,0
2017-02-17T05:43:38.455Z,0
2017-02-17T05:44:48.366Z,0
2017-02-17T05:45:59.316Z,0
2017-02-17T05:47:09.625Z,0
2017-02-17T05:48:19.961Z,0
2017-02-17T05:49:30.250Z,0
2017-02-17T05:50:40.548Z,0
2017-02-17T05:51:51.152Z,0
2017-02-17T05:53:01.844Z,0
2017-02-17T05:54:12.521Z,0
2017-02-17T05:55:22.825Z,0
2017-02-17T05:56:33.121Z,0
2017-02-17T05:57:43.188Z,0
2017-02-17T05:58:53.896Z,0
2017-02-17T06:00:04.196Z,0
2017-02-17T06:01:14.875Z,0
2017-02-17T06:02:25.153Z,0
2017-02-17T06:03:36.010Z,0
2017-02-17T06:04:46.698Z,0
2017-02-17T06:05:57.384Z,0
2017-02-17T06:07:07.685Z,0
2017-02-17T06:08:18.351Z,0
2017-02-17T06:09:28.894Z,0
2017-02-17T06:10:39.586Z,0
2017-02-17T06:11:49.865Z,0
2017-02-17T06:13:00.560Z,0
2017-02-17T06:14:10.847Z,0
2017-02-17T06:15:21.456Z,0
2017-02-17T06:16:32.177Z,0
2017-02-17T06:17:42.471Z,0
2017-02-17T06:18:52.773Z,0
2017-02-17T06:20:02.649Z,0
2017-02-17T06:21:12.813Z,0
2017-02-17T06:22:22.728Z,0
2017-02-17T06:23:32.642Z,0
2017-02-17T06:24:43.357Z,0
2017-02-17T06:25:53.660Z,0
2017-02-17T06:27:04.139Z,0
2017-02-17T06:28:14.423Z,0
2017-02-17T06:29:25.154Z,0
2017-02-17T06:30:35.077Z,4
2017-02-17T06:31:45.369Z,4
2017-02-17T06:32:55.969Z,4
2017-02-17T06:34:05.901Z,4
2017-02-17T06:35:16.215Z,4
2017-02-17T06:36:26.959Z,4
2017-02-17T06:37:37.300Z,8
2017-02-17T06:38:47.892Z,8
2017-02-17T06:39:58.192Z,12
2017-02-17T06:41:08.485Z,8
2017-02-17T06:42:18.782Z,8
2017-02-17T06:43:28.692Z,12
2017-02-17T06:44:38.930Z,16
2017-02-17T06:45:49.666Z,20
2017-02-17T06:46:59.987Z,20
2017-02-17T06:48:10.263Z,20
2017-02-17T06:49:20.918Z,20
2017-02-17T06:50:31.880Z,24
2017-02-17T06:51:42.559Z,24
2017-02-17T06:52:52.847Z,20
2017-02-17T06:54:02.772Z,24
2017-02-17T06:55:13.445Z,28
2017-02-17T06:56:23.879Z,32
2017-02-17T06:57:33.786Z,28
2017-02-17T06:58:44.129Z,32
2017-02-17T06:59:54.041Z,36
2017-02-17T07:01:04.713Z,44
2017-02-17T07:02:15.558Z,48
2017-02-17T07:03:26.246Z,52
2017-02-17T07:04:36.924Z,56
2017-02-17T07:05:47.196Z,64
2017-02-17T07:06:57.873Z,68
2017-02-17T07:08:07.532Z,68
2017-02-17T07:09:17.836Z,76
2017-02-17T07:10:28.107Z,76
2017-02-17T07:11:38.460Z,80
2017-02-17T07:12:48.466Z,92
2017-02-17T07:13:58.907Z,92
2017-02-17T07:15:09.615Z,88
2017-02-17T07:16:19.924Z,88
2017-02-17T07:17:30.218Z,92
2017-02-17T07:18:40.888Z,108
2017-02-17T07:19:52.187Z,124
2017-02-17T07:21:02.473Z,136
2017-02-17T07:22:12.765Z,128
2017-02-17T07:23:23.077Z,100
2017-02-17T07:24:33.381Z,76
2017-02-17T07:25:44.315Z,88
2017-02-17T07:26:54.214Z,92
2017-02-17T07:28:04.499Z,116
2017-02-17T07:29:14.793Z,104
2017-02-17T07:30:25.479Z,128
2017-02-17T07:31:36.781Z,132
2017-02-17T07:32:47.438Z,116
2017-02-17T07:33:58.126Z,104
2017-02-17T07:35:08.812Z,108
2017-02-17T07:36:19.101Z,132
2017-02-17T07:37:28.887Z,112
2017-02-17T07:38:39.847Z,124
2017-02-17T07:39:50.137Z,128
2017-02-17T07:41:00.807Z,116
2017-02-17T07:42:11.085Z,120
2017-02-17T07:43:21.478Z,148
2017-02-17T07:44:31.788Z,164
2017-02-17T07:45:42.063Z,164
2017-02-17T07:46:52.366Z,168
2017-02-17T07:48:02.670Z,212
2017-02-17T07:49:13.591Z,208
2017-02-17T07:50:23.493Z,144
2017-02-17T07:51:33.812Z,112
2017-02-17T07:52:44.478Z,92
2017-02-17T07:53:54.782Z,108
2017-02-17T07:55:05.806Z,100
2017-02-17T07:56:15.722Z,108
2017-02-17T07:57:26.701Z,88
2017-02-17T07:58:36.605Z,80
2017-02-17T07:59:47.303Z,80
2017-02-17T08:00:58.129Z,72
2017-02-17T08:02:08.841Z,60
2017-02-17T08:03:19.187Z,60
2017-02-17T08:04:29.862Z,72
2017-02-17T08:05:40.575Z,136
2017-02-17T08:06:51.192Z,208
2017-02-17T08:08:01.497Z,316
2017-02-17T08:09:11.803Z,372
2017-02-17T08:10:22.466Z,468
2017-02-17T08:11:32.365Z,268
2017-02-17T08:12:42.503Z,172
2017-02-17T08:13:52.379Z,148
2017-02-17T08:15:02.680Z,116
2017-02-17T08:16:12.974Z,100
2017-02-17T08:17:23.678Z,96
2017-02-17T08:18:34.720Z,108
2017-02-17T08:19:44.272Z,156
2017-02-17T08:20:54.947Z,180
2017-02-17T08:22:05.224Z,256
2017-02-17T08:23:15.503Z,340
2017-02-17T08:24:26.307Z,220
2017-02-17T08:25:37.053Z,136
2017-02-17T08:26:46.962Z,112
2017-02-17T08:27:57.690Z,116
2017-02-17T08:29:08.376Z,128
2017-02-17T08:30:19.365Z,140
2017-02-17T08:31:30.058Z,148
2017-02-17T08:32:40.708Z,172
2017-02-17T08:33:51.002Z,228
2017-02-17T08:35:01.271Z,320
2017-02-17T08:36:12.293Z,372
2017-02-17T08:37:22.597Z,432
2017-02-17T08:38:33.309Z,568
2017-02-17T08:39:44.044Z,576
2017-02-17T08:40:54.342Z,712
2017-02-17T08:42:04.961Z,596
2017-02-17T08:43:15.621Z,564
2017-02-17T08:44:25.912Z,552
2017-02-17T08:45:36.204Z,468
2017-02-17T08:46:46.895Z,316
2017-02-17T08:47:57.447Z,248
2017-02-17T08:49:07.741Z,272
2017-02-17T08:50:18.422Z,256
2017-02-17T08:51:28.377Z,216
2017-02-17T08:52:39.064Z,212
2017-02-17T08:53:50.437Z,184
2017-02-17T08:55:01.156Z,200
2017-02-17T08:56:11.881Z,228
2017-02-17T08:57:21.421Z,220
2017-02-17T08:58:31.331Z,228
2017-02-17T08:59:41.776Z,252
2017-02-17T09:00:52.112Z,208
2017-02-17T09:02:02.810Z,228
2017-02-17T09:03:12.759Z,216
2017-02-17T09:04:23.070Z,204
2017-02-17T09:05:34.115Z,184
2017-02-17T09:06:44.789Z,176
2017-02-17T09:07:55.123Z,204
2017-02-17T09:09:05.396Z,204
2017-02-17T09:10:15.373Z,200
2017-02-17T09:11:26.064Z,200
2017-02-17T09:12:36.748Z,272
2017-02-17T09:13:47.054Z,328
2017-02-17T09:14:57.337Z,408
2017-02-17T09:16:08.016Z,248
2017-02-17T09:17:18.405Z,196
2017-02-17T09:18:28.296Z,292
2017-02-17T09:19:38.609Z,312
2017-02-17T09:20:48.926Z,356
2017-02-17T09:21:59.594Z,384
2017-02-17T09:23:10.187Z,492
2017-02-17T09:24:20.873Z,540
2017-02-17T09:25:31.541Z,876
2017-02-17T09:26:41.451Z,976
2017-02-17T09:27:51.752Z,1016
2017-02-17T09:29:01.896Z,640
2017-02-17T09:30:11.777Z,560
2017-02-17T09:31:22.450Z,404
2017-02-17T09:32:33.152Z,388
2017-02-17T09:33:43.460Z,444
2017-02-17T09:34:54.302Z,436
2017-02-17T09:36:04.608Z,424
2017-02-17T09:37:14.938Z,472
2017-02-17T09:38:24.472Z,412
2017-02-17T09:39:35.143Z,568
2017-02-17T09:40:45.755Z,548
2017-02-17T09:41:56.452Z,604
2017-02-17T09:43:06.741Z,576
2017-02-17T09:44:17.420Z,964
2017-02-17T09:45:27.357Z,888
2017-02-17T09:46:38.363Z,996
2017-02-17T09:47:48.283Z,772
2017-02-17T09:48:58.953Z,880
2017-02-17T09:50:09.262Z,848
2017-02-17T09:51:19.575Z,892
2017-02-17T09:52:30.005Z,1144
2017-02-17T09:53:40.304Z,1260
2017-02-17T09:54:50.217Z,968
2017-02-17T09:56:00.116Z,1392
2017-02-17T09:57:10.415Z,1044
2017-02-17T09:58:20.474Z,864
2017-02-17T09:59:31.197Z,712
2017-02-17T10:00:41.489Z,728
2017-02-17T10:01:52.186Z,624
2017-02-17T10:03:02.502Z,612
2017-02-17T10:04:12.555Z,712
2017-02-17T10:05:22.871Z,720
2017-02-17T10:06:33.543Z,700
2017-02-17T10:07:43.812Z,616
2017-02-17T10:08:54.103Z,560
2017-02-17T10:10:05.107Z,592
2017-02-17T10:11:15.375Z,720
2017-02-17T10:12:25.262Z,824
2017-02-17T10:13:35.564Z,792
2017-02-17T10:14:45.832Z,652
2017-02-17T10:15:56.274Z,684
2017-02-17T10:17:06.561Z,636
2017-02-17T10:18:16.849Z,548
2017-02-17T10:19:27.528Z,408
2017-02-17T10:20:37.828Z,424
2017-02-17T10:21:48.798Z,320
2017-02-17T10:22:59.108Z,248
2017-02-17T10:24:09.391Z,288
2017-02-17T10:25:19.657Z,236
2017-02-17T10:26:30.342Z,248
2017-02-17T10:27:41.307Z,224
2017-02-17T10:28:51.229Z,200
2017-02-17T10:30:01.511Z,208
2017-02-17T10:31:11.811Z,236
2017-02-17T10:32:21.725Z,212
2017-02-17T10:33:31.373Z,244
2017-02-17T10:34:40.903Z,268
2017-02-17T10:35:51.582Z,320
2017-02-17T10:37:01.492Z,236
2017-02-17T10:38:11.782Z,208
2017-02-17T10:39:21.660Z,164
2017-02-17T10:40:32.391Z,152
2017-02-17T10:41:42.688Z,212
2017-02-17T10:42:52.583Z,256
2017-02-17T10:44:02.500Z,356
2017-02-17T10:45:13.477Z,416
2017-02-17T10:46:23.767Z,408
2017-02-17T10:47:33.685Z,328
2017-02-17T10:48:44.356Z,312
2017-02-17T10:49:54.635Z,328
2017-02-17T10:51:05.292Z,432
2017-02-17T10:52:15.992Z,588
2017-02-17T10:53:26.692Z,520
2017-02-17T10:54:37.411Z,500
2017-02-17T10:55:47.302Z,476
2017-02-17T10:56:57.898Z,436
2017-02-17T10:58:07.805Z,456
2017-02-17T10:59:17.736Z,364
2017-02-17T11:00:27.628Z,340
2017-02-17T11:01:37.923Z,372
2017-02-17T11:02:48.558Z,308
2017-02-17T11:03:58.861Z,292
2017-02-17T11:05:09.570Z,256
2017-02-17T11:06:19.862Z,276
2017-02-17T11:07:31.131Z,284
2017-02-17T11:08:42.052Z,268
2017-02-17T11:09:52.368Z,316
2017-02-17T11:11:03.041Z,356
2017-02-17T11:12:12.931Z,364
2017-02-17T11:13:23.254Z,420
2017-02-17T11:14:34.145Z,600
2017-02-17T11:15:44.432Z,568
2017-02-17T11:16:55.126Z,500
2017-02-17T11:18:05.420Z,440
2017-02-17T11:19:14.580Z,440
2017-02-17T11:20:25.472Z,444
2017-02-17T11:21:35.018Z,452
2017-02-17T11:22:44.505Z,440
2017-02-17T11:23:55.190Z,448
2017-02-17T11:25:05.899Z,560
2017-02-17T11:26:16.410Z,608
2017-02-17T11:27:26.702Z,572
2017-02-17T11:28:36.981Z,652
2017-02-17T11:29:47.703Z,708
2017-02-17T11:30:58.709Z,680
2017-02-17T11:32:09.533Z,660
2017-02-17T11:33:19.823Z,516
2017-02-17T11:34:30.129Z,512
2017-02-17T11:35:40.439Z,408
2017-02-17T11:36:50.727Z,324
2017-02-17T11:38:01.163Z,424
2017-02-17T11:39:11.465Z,428
2017-02-17T11:40:21.842Z,396
2017-02-17T11:41:31.732Z,412
2017-02-17T11:42:42.424Z,464
2017-02-17T11:43:53.001Z,468
2017-02-17T11:45:03.708Z,372
2017-02-17T11:46:13.606Z,344
2017-02-17T11:47:23.908Z,320
2017-02-17T11:48:34.593Z,340
2017-02-17T11:49:45.194Z,336
2017-02-17T11:50:55.099Z,364
2017-02-17T11:52:05.784Z,268
2017-02-17T11:53:15.693Z,264
2017-02-17T11:54:26.402Z,272
2017-02-17T11:55:36.463Z,272
2017-02-17T11:56:47.154Z,316
2017-02-17T11:57:57.083Z,440
2017-02-17T11:59:07.369Z,456
2017-02-17T12:00:17.282Z,424
2017-02-17T12:01:27.859Z,488
2017-02-17T12:02:38.207Z,616
2017-02-17T12:03:48.486Z,644
2017-02-17T12:04:59.166Z,524
2017-02-17T12:06:09.475Z,480
2017-02-17T12:07:20.109Z,520
2017-02-17T12:08:30.017Z,484
2017-02-17T12:09:40.694Z,368
2017-02-17T12:10:50.216Z,412
2017-02-17T12:12:00.906Z,372
2017-02-17T12:13:10.980Z,440
2017-02-17T12:14:21.293Z,476
2017-02-17T12:15:31.581Z,408
2017-02-17T12:16:41.898Z,476
2017-02-17T12:17:52.579Z,388
2017-02-17T12:19:02.202Z,364
2017-02-17T12:20:12.500Z,468
2017-02-17T12:21:23.199Z,456
2017-02-17T12:22:33.893Z,368
2017-02-17T12:23:44.177Z,336
2017-02-17T12:24:55.026Z,268
2017-02-17T12:26:05.344Z,292
2017-02-17T12:27:15.650Z,224
2017-02-17T12:28:25.624Z,200
2017-02-17T12:29:36.352Z,248
2017-02-17T12:30:46.753Z,196
2017-02-17T12:31:57.431Z,252
2017-02-17T12:33:07.742Z,256
2017-02-17T12:34:18.049Z,280
2017-02-17T12:35:27.975Z,256
2017-02-17T12:36:38.051Z,400
2017-02-17T12:37:48.758Z,484
2017-02-17T12:38:59.034Z,540
2017-02-17T12:40:09.734Z,420
2017-02-17T12:41:20.395Z,624
2017-02-17T12:42:30.940Z,484
2017-02-17T12:43:41.626Z,536
2017-02-17T12:44:51.524Z,468
2017-02-17T12:46:02.195Z,476
2017-02-17T12:47:12.861Z,516
2017-02-17T12:48:23.313Z,436
2017-02-17T12:49:32.817Z,332
2017-02-17T12:50:43.493Z,372
2017-02-17T12:51:53.391Z,516
2017-02-17T12:53:04.053Z,384
2017-02-17T12:54:15.485Z,340
2017-02-17T12:55:25.761Z,284
2017-02-17T12:56:35.265Z,344
2017-02-17T12:57:45.948Z,376
2017-02-17T12:58:55.829Z,348
2017-02-17T13:00:06.066Z,324
2017-02-17T13:01:16.405Z,336
2017-02-17T13:02:27.059Z,312
2017-02-17T13:03:36.966Z,348
2017-02-17T13:04:47.277Z,312
2017-02-17T13:05:57.433Z,424
2017-02-17T13:07:07.996Z,388
2017-02-17T13:08:18.303Z,444
2017-02-17T13:09:28.217Z,528
2017-02-17T13:10:38.503Z,564
2017-02-17T13:11:49.280Z,532
2017-02-17T13:12:59.576Z,544
2017-02-17T13:14:10.254Z,572
2017-02-17T13:15:20.153Z,532
2017-02-17T13:16:30.847Z,476
2017-02-17T13:17:41.521Z,472
2017-02-17T13:18:52.224Z,372
2017-02-17T13:20:02.199Z,348
2017-02-17T13:21:12.912Z,572
2017-02-17T13:22:22.822Z,684
2017-02-17T13:23:34.122Z,488
2017-02-17T13:24:44.437Z,468
2017-02-17T13:25:54.331Z,548
2017-02-17T13:27:05.418Z,668
2017-02-17T13:28:15.901Z,788
2017-02-17T13:29:26.875Z,768
2017-02-17T13:30:37.577Z,704
2017-02-17T13:31:47.899Z,748
2017-02-17T13:32:57.450Z,796
2017-02-17T13:34:07.738Z,724
2017-02-17T13:35:18.177Z,684
2017-02-17T13:36:28.873Z,684
2017-02-17T13:37:39.197Z,676
2017-02-17T13:38:49.499Z,636
2017-02-17T13:39:59.798Z,532
2017-02-17T13:41:10.396Z,448
2017-02-17T13:42:20.091Z,428
2017-02-17T13:43:30.005Z,432
2017-02-17T13:44:40.307Z,432
2017-02-17T13:45:50.972Z,444
2017-02-17T13:47:01.617Z,484
2017-02-17T13:48:11.569Z,516
2017-02-17T13:49:21.497Z,540
2017-02-17T13:50:31.386Z,532
2017-02-17T13:51:42.083Z,536
2017-02-17T13:52:53.042Z,560
2017-02-17T13:54:03.320Z,592
2017-02-17T13:55:13.608Z,580
2017-02-17T13:56:23.518Z,524
2017-02-17T13:57:34.217Z,448
2017-02-17T13:58:45.826Z,364
2017-02-17T13:59:56.139Z,376
2017-02-17T14:01:06.453Z,396
2017-02-17T14:02:16.754Z,444
2017-02-17T14:03:27.070Z,476
2017-02-17T14:04:38.080Z,416
2017-02-17T14:05:48.785Z,464
2017-02-17T14:06:59.484Z,392
2017-02-17T14:08:09.013Z,316
2017-02-17T14:09:19.692Z,480
2017-02-17T14:10:30.550Z,548
2017-02-17T14:11:40.866Z,596
2017-02-17T14:12:51.571Z,588
2017-02-17T14:14:01.124Z,532
2017-02-17T14:15:11.025Z,608
2017-02-17T14:16:21.172Z,688
2017-02-17T14:17:31.880Z,648
2017-02-17T14:18:41.395Z,668
2017-02-17T14:19:52.070Z,612
2017-02-17T14:21:01.612Z,660
2017-02-17T14:22:11.669Z,656
2017-02-17T14:23:21.572Z,724
2017-02-17T14:24:31.899Z,812
2017-02-17T14:25:42.632Z,820
2017-02-17T14:26:52.575Z,772
2017-02-17T14:28:03.504Z,840
2017-02-17T14:29:13.401Z,844
2017-02-17T14:30:24.058Z,852
2017-02-17T14:31:34.333Z,828
2017-02-17T14:32:44.618Z,808
2017-02-17T14:33:54.849Z,796
2017-02-17T14:35:05.132Z,784
2017-02-17T14:36:15.443Z,760
2017-02-17T14:37:25.384Z,760
2017-02-17T14:38:35.671Z,744
2017-02-17T14:39:46.326Z,672
2017-02-17T14:40:56.644Z,696
2017-02-17T14:42:06.593Z,712
2017-02-17T14:43:16.915Z,700
2017-02-17T14:44:27.612Z,744
2017-02-17T14:45:38.157Z,704
2017-02-17T14:46:48.459Z,664
2017-02-17T14:47:58.729Z,644
2017-02-17T14:49:08.641Z,600
2017-02-17T14:50:18.961Z,528
2017-02-17T14:51:29.780Z,448
2017-02-17T14:52:40.090Z,416
2017-02-17T14:53:50.414Z,392
2017-02-17T14:54:59.941Z,412
2017-02-17T14:56:09.904Z,412
2017-02-17T14:57:20.700Z,444
2017-02-17T14:58:31.018Z,468
2017-02-17T14:59:41.762Z,440
2017-02-17T15:00:52.048Z,448
2017-02-17T15:02:02.371Z,424
2017-02-17T15:03:12.806Z,456
2017-02-17T15:04:23.159Z,496
2017-02-17T15:05:33.429Z,496
2017-02-17T15:06:43.357Z,516
2017-02-17T15:07:53.645Z,540
2017-02-17T15:09:04.624Z,532
2017-02-17T15:10:15.281Z,516
2017-02-17T15:11:25.603Z,516
2017-02-17T15:12:36.270Z,552
2017-02-17T15:13:46.557Z,544
2017-02-17T15:14:57.153Z,476
2017-02-17T15:16:07.430Z,384
2017-02-17T15:17:18.101Z,472
2017-02-17T15:18:28.381Z,464
2017-02-17T15:19:39.060Z,428
2017-02-17T15:20:49.858Z,328
2017-02-17T15:22:00.576Z,332
2017-02-17T15:23:10.890Z,328
2017-02-17T15:24:21.569Z,276
2017-02-17T15:25:31.484Z,232
2017-02-17T15:26:42.283Z,220
2017-02-17T15:27:51.798Z,188
2017-02-17T15:29:02.468Z,204
2017-02-17T15:30:12.748Z,212
2017-02-17T15:31:23.064Z,92
2017-02-17T15:32:33.664Z,108
2017-02-17T15:33:43.946Z,104
2017-02-17T15:34:54.633Z,100
2017-02-17T15:36:04.130Z,104
2017-02-17T15:37:14.051Z,108
2017-02-17T15:38:24.587Z,108
2017-02-17T15:39:35.310Z,92
2017-02-17T15:40:45.202Z,72
2017-02-17T15:41:55.875Z,68
2017-02-17T15:43:06.554Z,88
2017-02-17T15:44:17.549Z,92
2017-02-17T15:45:28.276Z,68
2017-02-17T15:46:37.866Z,60
2017-02-17T15:47:48.183Z,80
2017-02-17T15:48:58.871Z,100
2017-02-17T15:50:09.734Z,112
2017-02-17T15:51:20.435Z,112
2017-02-17T15:52:30.350Z,112
2017-02-17T15:53:40.618Z,112
2017-02-17T15:54:50.901Z,112
2017-02-17T15:56:01.504Z,104
2017-02-17T15:57:11.802Z,84
2017-02-17T15:58:22.098Z,72
2017-02-17T15:59:32.760Z,64
2017-02-17T16:00:43.377Z,64
2017-02-17T16:01:53.563Z,64
2017-02-17T16:03:03.448Z,64
2017-02-17T16:04:13.354Z,60
2017-02-17T16:05:24.036Z,60
2017-02-17T16:06:34.713Z,60
2017-02-17T16:07:45.752Z,60
2017-02-17T16:08:56.045Z,60
2017-02-17T16:10:05.565Z,56
2017-02-17T16:11:15.872Z,56
2017-02-17T16:12:26.173Z,60
2017-02-17T16:13:36.570Z,64
2017-02-17T16:14:46.910Z,64
2017-02-17T16:15:57.219Z,60
2017-02-17T16:17:07.517Z,60
2017-02-17T16:18:17.825Z,64
2017-02-17T16:19:28.748Z,68
2017-02-17T16:20:39.102Z,68
2017-02-17T16:21:49.093Z,76
2017-02-17T16:22:59.422Z,84
2017-02-17T16:24:09.719Z,92
2017-02-17T16:25:20.740Z,92
2017-02-17T16:26:31.043Z,88
2017-02-17T16:27:41.720Z,88
2017-02-17T16:28:52.004Z,84
2017-02-17T16:30:02.314Z,76
2017-02-17T16:31:12.026Z,72
2017-02-17T16:32:22.330Z,72
2017-02-17T16:33:32.637Z,72
2017-02-17T16:34:42.943Z,72
2017-02-17T16:35:53.611Z,68
2017-02-17T16:37:03.837Z,64
2017-02-17T16:38:14.140Z,60
2017-02-17T16:39:24.050Z,56
2017-02-17T16:40:34.562Z,52